Latest Coastal Weather Observations for Hobart Airport

IDT60701

Issued at 4:03 am EST Thursday 25 August 2016 (issued every 10 minutes, with the page automatically refreshed every 10 minutes)

About coastal observations | Map of coastal stations | Coastal observations for TAS | Marine services | Other Formats
Station Details ID: 094008 Name: HOBART AIRPORT Lat: -42.83 Lon: 147.50 Height: 4.0 m
Data from the previous 72 hours. | See also: Recent months at Hobart Airport
Date/Time
EST
Temp
°C
Wind Pressure Rain since
9am
mm
Weather Cloud Vis
km
Sea
Height
m
Swell
Dir  Spd
kts
Gust
kts
hPa Trend Height
m
Period
s
Dir
25/03:30am 4.8 NW 12 15 1009.4 - 0.0 - Partly cloudy 10 - - - -
25/03:00am 5.5 NW 9 13 1009.6 F 0.0 Fine Partly cloudy 40 - - - -
25/02:30am 4.7 WNW 9 12 1009.7 - 0.0 - Partly cloudy 10 - - - -
25/02:00am 5.3 NW 10 14 1009.6 - 0.0 - Mostly clear 10 - - - -
25/01:30am 5.2 NW 9 13 1009.9 - 0.0 - Mostly clear 10 - - - -
25/01:00am 5.2 NW 9 12 1010.0 - 0.0 - Mostly clear 10 - - - -
25/12:30am 4.3 WNW 7 8 1010.1 - 0.0 - Mostly clear 10 - - - -
25/12:00am 4.4 NNW 7 10 1010.3 F 0.0 Fine Mostly clear 40 - - - -
 
Date/Time
EST
Temp
°C
Wind Pressure Rain since
9am
mm
Weather Cloud Vis
km
Sea
Height
m
Swell
Dir  Spd
kts
Gust
kts
hPa Trend Height
m
Period
s
Dir
24/11:30pm 5.1 NW 5 6 1010.3 - 0.0 - Mostly clear 10 - - - -
24/11:00pm 5.7 WNW 7 9 1010.4 - 0.0 - Partly cloudy 10 - - - -
24/10:30pm 4.4 NNW 3 4 1010.5 - 0.0 - Mostly clear 10 - - - -
24/10:00pm 3.9 N 3 5 1010.4 - 0.0 - Mostly clear 10 - - - -
24/09:30pm 4.9 W 5 7 1010.7 - 0.0 - Mostly clear 10 - - - -
24/09:00pm 5.2 WNW 4 6 1010.8 F 0.0 Fine Mostly clear 40 - - - -
24/08:30pm 6.2 WNW 3 5 1010.9 - 0.0 - Mostly clear 10 - - - -
24/08:00pm 5.3 N 1 3 1010.9 - 0.0 - Mostly clear 10 - - - -
24/07:30pm 6.5 SW 6 7 1010.7 - 0.0 - Mostly clear 10 - - - -
24/07:00pm 7.0 WSW 5 6 1010.8 - 0.0 - Mostly clear 10 - - - -
24/06:30pm 7.7 SW 7 8 1010.5 - 0.0 - Mostly clear 10 - - - -
24/06:00pm 8.3 SW 7 9 1010.4 F 0.0 Fine Mostly clear 40 - - - -
24/05:30pm 9.6 W 5 7 1010.2 - 0.0 - Mostly clear 10 - - - -
24/05:00pm 11.0 WSW 5 8 1010.0 - 0.0 - Mostly clear 10 - - - -
24/04:30pm 11.7 WNW 4 6 1009.8 - 0.0 - Partly cloudy 10 - - - -
24/04:00pm 10.7 SSE 5 6 1009.8 - 0.0 - Partly cloudy 10 - - - -
24/03:30pm 11.0 SE 6 10 1009.9 - 0.0 - Partly cloudy 10 - - - -
24/03:00pm 11.2 SSE 9 11 1010.1 F 0.0 Fine Partly cloudy 40 - - - -
24/02:30pm 10.9 SSW 8 11 1010.2 - 0.0 - Partly cloudy 10 - - - -
24/02:00pm 12.0 SW 4 14 1010.3 - 0.0 - Mostly clear 10 - - - -
24/01:30pm 11.8 W 9 13 1010.5 - 0.0 - Partly cloudy 10 - - - -
24/01:00pm 12.5 SE 5 9 1010.7 - 0.0 - Partly cloudy 10 - - - -
24/12:30pm 11.6 WNW 8 12 1011.0 - 0.0 - Partly cloudy 10 - - - -
24/12:00pm 10.9 WNW 9 13 1011.4 F 0.0 Fine Partly cloudy 40 - - - -
24/11:30am 11.4 NW 11 16 1011.9 - 0.0 - Partly cloudy 10 - - - -
24/11:00am 11.5 WNW 9 14 1012.3 - 0.0 - Partly cloudy 10 - - - -
24/10:30am 10.6 NW 11 15 1012.5 - 0.0 - Partly cloudy 10 - - - -
24/10:00am 10.4 NW 11 16 1012.7 - 0.0 - Mostly clear 10 - - - -
24/09:30am 9.5 NW 10 14 1013.1 - 0.0 - Mostly clear 10 - - - -
24/09:00am 8.5 NW 10 14 1013.5 F 0.0 Fine Mostly clear 40 - - - -
24/08:30am 7.9 NW 10 15 1013.6 - 0.0 - Mostly clear 10 - - - -
24/08:00am 6.7 NW 6 11 1013.8 - 0.0 - Mostly clear 10 - - - -
24/07:30am 4.2 NW 2 6 1013.5 - 0.0 - Mostly clear 10 - - - -
24/07:00am 2.7 NW 4 6 1013.3 - 0.0 - Mostly clear 10 - - - -
24/06:30am 1.8 NW 4 4 1013.3 - 0.0 - Mostly clear 10 - - - -
24/06:00am 3.2 NNW 4 6 1013.2 F 0.0 Fine Mostly clear 40 - - - -
24/05:30am 4.3 NNW 7 9 1013.1 - 0.0 - Mostly clear 10 - - - -
24/05:00am 2.6 NW 5 5 1013.1 - 0.0 - Mostly clear 10 - - - -
24/04:30am 4.5 NW 5 6 1013.1 - 0.0 - Mostly clear 10 - - - -
24/04:00am 4.9 NNW 7 9 1013.2 - 0.0 - Mostly clear 10 - - - -
24/03:30am 5.2 NNW 7 9 1013.2 - 0.0 - Mostly clear 10 - - - -
24/03:00am 5.3 NNW 6 8 1013.5 F 0.0 Fine Partly cloudy 40 - - - -
24/02:30am 6.1 NNW 5 6 1013.8 - 0.0 - Mostly clear 10 - - - -
24/02:00am 6.0 WNW 4 5 1014.1 - 0.0 - Mostly clear 10 - - - -
24/01:30am 6.3 NNW 5 7 1014.2 - 0.0 - Mostly clear 10 - - - -
24/01:00am 6.5 WNW 7 8 1014.3 - 0.0 - Mostly clear 10 - - - -
24/12:30am 6.7 NW 9 12 1014.4 - 0.0 - Mostly clear 10 - - - -
24/12:00am 6.9 NNW 8 11 1014.4 F 0.0 Fine Partly cloudy 40 - - - -
 
Date/Time
EST
Temp
°C
Wind Pressure Rain since
9am
mm
Weather Cloud Vis
km
Sea
Height
m
Swell
Dir  Spd
kts
Gust
kts
hPa Trend Height
m
Period
s
Dir
23/11:30pm 6.9 NNW 8 11 1014.5 - 0.0 - Mostly clear 10 - - - -
23/11:00pm 6.8 NNW 8 13 1014.3 - 0.0 - Mostly clear 10 - - - -
23/10:30pm 6.7 NNW 7 11 1014.6 - 0.0 - Mostly clear 10 - - - -
23/10:00pm 7.0 WNW 7 10 1014.7 - 0.0 - Mostly clear 10 - - - -
23/09:30pm 6.8 NNW 7 10 1014.8 - 0.0 - Mostly clear 10 - - - -
23/09:00pm 7.5 NNW 7 10 1014.8 F 0.0 Fine Mostly clear 40 - - - -
23/08:30pm 7.8 NW 8 12 1014.8 - 0.0 - - 10 - - - -
23/08:00pm 7.7 NW 9 11 1014.8 - 0.0 - - 10 - - - -
23/07:30pm 7.1 NW 8 9 1014.6 - 0.0 - - 10 - - - -
23/07:00pm 6.3 NNW 5 6 1014.5 - 0.0 - - 10 - - - -
23/06:30pm 7.5 WSW 6 8 1014.4 - 0.0 - - 10 - - - -
23/06:00pm 8.1 WSW 7 8 1014.3 R 0.0 Fine Mostly clear 40 - - - -
23/05:30pm 9.2 WSW 10 13 1014.0 - 0.0 - Partly cloudy 10 - - - -
23/05:00pm 10.3 SW 11 15 1013.6 - 0.0 - Mostly clear 10 - - - -
23/04:30pm 10.5 SSW 4 5 1013.2 - 0.0 - Mostly clear 10 - - - -
23/04:00pm 11.1 S 4 5 1013.0 - 0.0 - Mostly clear 10 - - - -
23/03:30pm 11.0 S 6 7 1013.0 - 0.0 - Partly cloudy 10 - - - -
23/03:00pm 11.8 WNW 10 16 1013.0 R 0.0 Showers Partly cloudy 35 - - - -
23/02:30pm 12.2 WNW 9 13 1013.0 - 0.0 - Mostly clear 10 - - - -
23/02:00pm 12.7 WNW 14 18 1012.9 - 0.0 - Mostly clear 10 - - - -
23/01:30pm 12.6 NW 13 18 1012.8 - 0.0 - Partly cloudy 10 - - - -
23/01:00pm 12.1 WNW 7 10 1012.9 - 0.0 - Partly cloudy 10 - - - -
23/12:30pm 12.0 W 7 11 1013.2 - 0.0 - Partly cloudy 10 - - - -
23/12:00pm 11.6 NNW 9 12 1013.5 F 0.0 Fine Partly cloudy 40 - - - -
23/11:30am 11.4 NNW 10 14 1013.8 - 0.0 - Mostly clear 10 - - - -
23/11:00am 11.2 NNW 13 17 1014.0 - 0.0 - Mostly clear 10 - - - -
23/10:30am 10.6 NNW 11 16 1014.2 - 0.0 - Mostly clear 10 - - - -
23/10:00am 9.7 NNW 9 13 1014.3 - 0.0 - Mostly clear 10 - - - -
23/09:30am 9.1 NNW 9 14 1014.5 - 0.0 - Mostly clear 10 - - - -
23/09:00am 8.3 NW 6 9 1014.5 R 0.0 Fine Mostly clear 40 - - - -
23/08:30am 6.2 NW 6 7 1014.3 - 0.0 - Mostly clear 10 - - - -
23/08:00am 5.4 NW 7 10 1014.2 - 0.0 - Mostly clear 10 - - - -
23/07:30am 4.8 NNW 8 10 1014.0 - 0.0 - Mostly clear 10 - - - -
23/07:00am 4.1 NW 9 12 1013.8 - 0.0 - Mostly clear 10 - - - -
23/06:30am 4.0 NNW 7 9 1013.5 - 0.0 - Mostly clear 10 - - - -
23/06:00am 3.8 NW 8 9 1013.3 R 0.0 Fine Mostly clear 40 - - - -
23/05:30am 4.0 NW 7 9 1013.1 - 0.0 - Mostly clear 10 - - - -
23/05:00am 4.0 WNW 9 10 1013.0 - 0.0 - Mostly clear 10 - - - -
23/04:30am 4.4 WNW 7 9 1013.0 - 0.0 - Mostly clear 10 - - - -
23/04:00am 4.4 WNW 9 11 1013.0 - 0.0 - Mostly clear 10 - - - -
23/03:30am 4.5 NW 7 9 1012.8 - 0.0 - Mostly clear 10 - - - -
23/03:00am 5.2 NW 9 11 1012.9 R 0.0 Fine Mostly clear 40 - - - -
23/02:30am 4.4 NNW 7 11 1013.2 - 0.0 - Mostly clear 10 - - - -
23/02:00am 4.7 NW 8 10 1013.3 - 0.0 - Mostly clear 10 - - - -
23/01:30am 4.8 NNW 8 11 1013.3 - 0.0 - Mostly clear 10 - - - -
23/01:00am 4.9 NNW 8 10 1013.3 - 0.0 - Mostly clear 10 - - - -
23/12:30am 5.0 NNW 7 10 1013.2 - 0.0 - Mostly clear 10 - - - -
23/12:00am 4.5 NNW 7 10 1013.2 R 0.0 Fine Mostly clear 40 - - - -
 
Date/Time
EST
Temp
°C
Wind Pressure Rain since
9am
mm
Weather Cloud Vis
km
Sea
Height
m
Swell
Dir  Spd
kts
Gust
kts
hPa Trend Height
m
Period
s
Dir
22/11:30pm 4.9 NW 8 10 1013.0 - 0.0 - Mostly clear 10 - - - -
22/11:00pm 5.6 NNW 3 4 1013.0 - 0.0 - Mostly clear 10 - - - -
22/10:30pm 5.5 NNW 5 7 1013.0 - 0.0 - Mostly clear 10 - - - -
22/10:00pm 5.8 NNW 5 7 1013.0 - 0.0 - Mostly clear 10 - - - -
22/09:30pm 6.3 NW 9 13 1012.6 - 0.0 - Mostly clear 10 - - - -
22/09:00pm 6.4 NW 7 8 1012.6 R 0.0 Fine Mostly clear 40 - - - -
22/08:30pm 7.5 NW 7 10 1012.3 - 0.0 - Mostly clear 10 - - - -
22/08:00pm 8.4 NNW 8 13 1011.9 - 0.0 - Mostly clear 10 - - - -
22/07:30pm 8.6 NW 11 14 1011.7 - 0.0 - Mostly clear 10 - - - -
22/07:00pm 8.3 NW 11 15 1011.4 - 0.0 - Mostly clear 10 - - - -
22/06:30pm 8.9 NW 11 14 1011.0 - 0.0 - Mostly clear 10 - - - -
22/06:00pm 9.4 NW 10 14 1010.7 R 0.0 Fine Mostly clear 40 - - - -
22/05:30pm 10.0 NW 9 11 1010.5 - 0.0 - Mostly clear 10 - - - -
22/05:00pm 11.0 WNW 11 14 1010.2 - 0.0 - Mostly clear 10 - - - -
22/04:30pm 11.8 NW 11 15 1009.8 - 0.0 - Mostly clear 10 - - - -
22/04:00pm 12.0 WNW 11 16 1009.7 - 0.0 - Mostly clear 10 - - - -
22/03:30pm 12.3 NW 13 18 1009.5 - 0.0 - Mostly clear 10 - - - -
22/03:00pm 12.7 NW 14 18 1009.5 R 0.0 Fine Mostly clear 40 - - - -
22/02:30pm 12.9 WNW 10 15 1009.4 - 0.0 - Mostly clear 10 - - - -
22/02:00pm 12.6 WNW 14 18 1009.4 - 0.0 - Mostly clear 10 - - - -
22/01:30pm 12.5 NW 17 21 1009.5 - 0.0 - Mostly clear 10 - - - -
22/01:00pm 12.3 NW 14 19 1009.5 - 0.0 - Mostly clear 10 - - - -
22/12:30pm 12.4 WNW 10 14 1009.8 - 0.0 - Mostly clear 10 - - - -
22/12:00pm 10.5 NW 10 15 1010.1 R 0.0 Fine Partly cloudy 40 - - - -
22/11:30am 11.0 NW 13 18 1010.2 - 0.0 - Partly cloudy 10 - - - -
22/11:00am 10.0 NW 10 13 1010.5 - 0.0 - Mostly clear 10 - - - -
22/10:30am 9.1 NW 8 11 1010.7 - 0.0 - Mostly clear 10 - - - -
22/10:00am 8.9 NNW 8 11 1010.6 - 0.0 - Mostly clear 10 - - - -
22/09:30am 9.0 N 6 8 1010.6 - 0.0 - Mostly clear 10 - - - -
22/09:00am 8.2 NNW 8 11 1010.5 R 0.0 Fine Mostly clear 40 - - - -
22/08:30am 7.4 NNW 6 9 1010.5 - 0.0 - Mostly clear 10 - - - -
22/08:00am 6.4 NW 10 11 1010.5 - 0.0 - Mostly clear 10 - - - -
22/07:30am 4.9 NW 15 17 1010.1 - 0.0 - Mostly clear 10 - - - -
22/07:00am 4.9 NW 9 11 1009.7 - 0.0 - Mostly clear 10 - - - -
22/06:30am 5.3 NW 7 10 1009.6 - 0.0 - Mostly clear 10 - - - -
22/06:00am 5.0 NW 8 9 1009.3 F 0.0 Fine Partly cloudy 40 - - - -
22/05:30am 4.5 NNW 5 8 1009.4 - 0.0 - Mostly clear 10 - - - -
22/05:00am 5.1 NNW 8 10 1009.4 - 0.0 - Mostly clear 10 - - - -
22/04:30am 4.7 NW 8 10 1009.5 - 0.0 - Mostly clear 10 - - - -

Other Formats:

Comma delimited format used in spreadsheet applications
http://www.bom.gov.au/fwo/IDT60701/IDT60701.94975.axf

JavaScript Object Notation format (JSON) in row-major order
http://www.bom.gov.au/fwo/IDT60701/IDT60701.94975.json